All Spectrum Aviation - Van Nuys Airport - KVNY

HOME

Condor Squadron KVNY Webcam

Visit our Electronics Store

Condor Squadron Webcam - Van Nuys Airport - KVNY
Picture taken: Wed, 08 Jul 2020 23:56:41 -0700
YouTube Channel!    Latest Timelapse Movie    Full Size Image    Regular Size Image    

2020/07/09 05:51 KVNY 090551Z 13006KT 10SM CLR 22/15 A2987 RMK AO2 SLP106 T02220150 10311 20222 51010

HOME

Condor Squadron KVNY Webcam

Visit our Electronics Store